createdAt,value
2023-02-12T00:01:57.258Z,2.92
2023-02-12T00:04:23.826Z,2.87
2023-02-12T00:06:50.414Z,2.75
2023-02-12T00:09:16.892Z,2.84
2023-02-12T00:11:43.356Z,2.89
2023-02-12T00:14:09.865Z,2.87
2023-02-12T00:16:36.458Z,2.80
2023-02-12T00:19:02.975Z,2.78
2023-02-12T00:21:29.582Z,2.75
2023-02-12T00:23:56.262Z,2.64
2023-02-12T00:26:22.964Z,2.77
2023-02-12T00:28:50.401Z,2.72
2023-02-12T00:31:19.625Z,2.67
2023-02-12T00:33:46.366Z,2.61
2023-02-12T00:36:15.345Z,2.45
2023-02-12T00:38:41.955Z,2.40
2023-02-12T00:41:08.532Z,2.51
2023-02-12T00:43:35.176Z,2.47
2023-02-12T00:46:01.693Z,2.57
2023-02-12T00:48:28.345Z,2.38
2023-02-12T00:50:54.928Z,2.30
2023-02-12T00:53:21.489Z,2.28
2023-02-12T00:55:47.962Z,2.31
2023-02-12T00:58:16.135Z,2.27
2023-02-12T01:00:43.931Z,2.19
2023-02-12T01:03:10.422Z,2.26
2023-02-12T01:05:37.123Z,2.30
2023-02-12T01:08:03.700Z,2.23
2023-02-12T01:10:30.253Z,2.08
2023-02-12T01:12:56.776Z,2.43
2023-02-12T01:15:23.325Z,2.19
2023-02-12T01:17:53.273Z,2.20
2023-02-12T01:20:20.909Z,2.23
2023-02-12T01:22:47.414Z,2.21
2023-02-12T01:25:14.128Z,2.21
2023-02-12T01:27:40.719Z,2.18
2023-02-12T01:30:08.895Z,2.08
2023-02-12T01:32:35.413Z,2.10
2023-02-12T01:35:02.030Z,2.17
2023-02-12T01:37:28.546Z,2.18
2023-02-12T01:39:55.056Z,2.11
2023-02-12T01:42:21.747Z,2.02
2023-02-12T01:45:13.020Z,2.07
2023-02-12T01:47:44.118Z,2.08
2023-02-12T01:50:12.652Z,2.03
2023-02-12T01:52:40.036Z,2.03
2023-02-12T01:55:08.134Z,2.02
2023-02-12T01:57:37.476Z,1.98
2023-02-12T02:00:06.910Z,1.95
2023-02-12T02:02:33.451Z,1.96
2023-02-12T02:05:02.270Z,2.00
2023-02-12T02:07:28.716Z,2.01
2023-02-12T02:09:56.004Z,1.98
2023-02-12T02:12:41.286Z,2.05
2023-02-12T02:15:09.073Z,1.96
2023-02-12T02:17:38.511Z,1.99
2023-02-12T02:20:29.997Z,2.04
2023-02-12T02:23:28.926Z,2.07
2023-02-12T02:26:34.574Z,2.11
2023-02-12T02:29:11.305Z,1.97
2023-02-12T02:31:40.764Z,2.00
2023-02-12T02:34:44.463Z,2.12
2023-02-12T02:37:16.658Z,2.19
2023-02-12T02:40:07.528Z,2.24
2023-02-12T02:42:55.849Z,2.27
2023-02-12T02:45:36.829Z,2.21
2023-02-12T02:48:06.121Z,2.15
2023-02-12T02:50:32.613Z,2.18
2023-02-12T02:53:02.905Z,2.13
2023-02-12T02:55:33.170Z,2.13
2023-02-12T02:58:01.723Z,2.13
2023-02-12T03:00:36.178Z,2.12
2023-02-12T03:03:06.882Z,2.05
2023-02-12T03:05:36.218Z,2.08
2023-02-12T03:08:08.635Z,2.14
2023-02-12T03:10:38.240Z,2.12
2023-02-12T03:13:16.902Z,2.04
2023-02-12T03:15:49.790Z,2.07
2023-02-12T03:18:19.230Z,2.01
2023-02-12T03:20:48.660Z,1.81
2023-02-12T03:23:21.833Z,1.66
2023-02-12T03:25:54.212Z,1.67
2023-02-12T03:28:23.743Z,1.75
2023-02-12T03:31:16.508Z,1.70
2023-02-12T03:34:11.905Z,1.69
2023-02-12T03:36:53.581Z,1.52
2023-02-12T03:39:39.726Z,1.52
2023-02-12T03:42:07.454Z,1.54
2023-02-12T03:44:58.263Z,1.53
2023-02-12T03:47:43.189Z,1.43
2023-02-12T03:50:45.860Z,1.49
2023-02-12T03:53:12.384Z,1.47
2023-02-12T03:55:41.271Z,1.51
2023-02-12T03:58:09.139Z,1.55
2023-02-12T04:00:37.854Z,1.47
2023-02-12T04:03:04.430Z,1.45
2023-02-12T04:05:30.944Z,1.42
2023-02-12T04:07:57.584Z,1.52
2023-02-12T04:10:38.605Z,1.62
2023-02-12T04:13:12.083Z,1.65
2023-02-12T04:16:02.055Z,1.67
2023-02-12T04:18:34.662Z,1.69
2023-02-12T04:21:12.693Z,1.40
2023-02-12T04:24:04.292Z,1.42
2023-02-12T04:26:39.987Z,1.38
2023-02-12T04:29:34.285Z,1.40
2023-02-12T04:32:13.196Z,1.42
2023-02-12T04:34:41.423Z,1.47
2023-02-12T04:37:17.141Z,1.47
2023-02-12T04:39:43.644Z,1.51
2023-02-12T04:42:10.129Z,1.52
2023-02-12T04:44:40.034Z,1.54
2023-02-12T04:47:06.502Z,1.48
2023-02-12T04:49:32.978Z,1.47
2023-02-12T04:51:59.562Z,1.45
2023-02-12T04:54:26.125Z,1.47
2023-02-12T04:56:52.669Z,1.49
2023-02-12T04:59:19.241Z,1.48
2023-02-12T05:01:45.943Z,1.47
2023-02-12T05:04:13.857Z,1.49
2023-02-12T05:06:40.445Z,1.51
2023-02-12T05:09:07.056Z,1.50
2023-02-12T05:11:33.506Z,1.54
2023-02-12T05:14:00.036Z,1.53
2023-02-12T05:16:26.614Z,1.50
2023-02-12T05:18:53.068Z,1.55
2023-02-12T05:21:19.579Z,1.57
2023-02-12T05:23:46.145Z,1.60
2023-02-12T05:26:17.680Z,1.63
2023-02-12T05:28:44.199Z,1.63
2023-02-12T05:31:12.974Z,1.62
2023-02-12T05:33:41.563Z,1.61
2023-02-12T05:36:10.053Z,1.57
2023-02-12T05:38:36.576Z,1.58
2023-02-12T05:41:07.737Z,1.61
2023-02-12T05:43:34.253Z,1.62
2023-02-12T05:46:01.583Z,1.53
2023-02-12T05:48:28.349Z,1.54
2023-02-12T05:50:55.101Z,1.57
2023-02-12T05:53:21.597Z,1.54
2023-02-12T05:55:48.082Z,1.53
2023-02-12T05:58:16.134Z,1.49
2023-02-12T06:00:42.730Z,1.53
2023-02-12T06:03:09.250Z,1.47
2023-02-12T06:05:35.764Z,1.46
2023-02-12T06:08:02.327Z,1.51
2023-02-12T06:10:28.821Z,1.53
2023-02-12T06:12:55.766Z,1.50
2023-02-12T06:15:22.262Z,1.48
2023-02-12T06:17:48.737Z,1.43
2023-02-12T06:20:15.476Z,1.35
2023-02-12T06:22:42.075Z,1.40
2023-02-12T06:25:08.667Z,1.41
2023-02-12T06:27:35.317Z,1.46
2023-02-12T06:30:01.837Z,1.45
2023-02-12T06:32:28.345Z,1.48
2023-02-12T06:34:54.911Z,1.49
2023-02-12T06:37:21.417Z,1.55
2023-02-12T06:39:47.898Z,1.58
2023-02-12T06:42:14.507Z,1.64
2023-02-12T06:44:40.996Z,1.63
2023-02-12T06:47:07.458Z,1.66
2023-02-12T06:49:34.021Z,1.69
2023-02-12T06:52:03.119Z,1.67
2023-02-12T06:54:29.987Z,1.67
2023-02-12T06:56:56.562Z,1.66
2023-02-12T06:59:23.074Z,1.63
2023-02-12T07:01:49.569Z,1.64
2023-02-12T07:04:16.381Z,1.62
2023-02-12T07:06:42.956Z,1.68
2023-02-12T07:09:09.442Z,1.74
2023-02-12T07:11:38.153Z,1.77
2023-02-12T07:14:05.290Z,1.76
2023-02-12T07:16:31.880Z,1.74
2023-02-12T07:18:58.489Z,1.81
2023-02-12T07:21:24.983Z,1.70
2023-02-12T07:23:52.223Z,1.76
2023-02-12T07:26:19.141Z,1.82
2023-02-12T07:28:45.651Z,1.80
2023-02-12T07:31:22.445Z,1.83
2023-02-12T07:33:49.633Z,1.85
2023-02-12T07:36:17.501Z,1.91
2023-02-12T07:38:44.136Z,2.05
2023-02-12T07:41:14.574Z,2.03
2023-02-12T07:43:41.796Z,2.03
2023-02-12T07:46:18.692Z,2.10
2023-02-12T07:48:45.779Z,2.08
2023-02-12T07:51:14.061Z,2.16
2023-02-12T07:53:40.611Z,2.21
2023-02-12T07:56:20.820Z,2.22
2023-02-12T07:58:48.243Z,2.29
2023-02-12T08:01:22.412Z,2.29
2023-02-12T08:03:49.582Z,2.32
2023-02-12T08:06:20.896Z,2.34
2023-02-12T08:08:47.543Z,2.35
2023-02-12T08:11:14.908Z,2.42
2023-02-12T08:13:41.426Z,2.49
2023-02-12T08:16:15.977Z,2.53
2023-02-12T08:18:42.627Z,2.55
2023-02-12T08:21:13.258Z,2.66
2023-02-12T08:23:39.825Z,2.70
2023-02-12T08:26:15.799Z,2.82
2023-02-12T08:28:44.710Z,2.87
2023-02-12T08:31:20.035Z,3.02
2023-02-12T08:33:47.316Z,2.92
2023-02-12T08:36:15.379Z,3.08
2023-02-12T08:38:42.286Z,3.19
2023-02-12T08:41:16.462Z,3.26
2023-02-12T08:43:43.188Z,3.29
2023-02-12T08:46:16.385Z,3.39
2023-02-12T08:48:42.898Z,3.43
2023-02-12T08:51:17.662Z,3.47
2023-02-12T08:53:45.580Z,3.57
2023-02-12T08:56:12.888Z,3.50
2023-02-12T08:58:39.419Z,3.56
2023-02-12T09:01:10.109Z,3.60
2023-02-12T09:03:36.634Z,3.65
2023-02-12T09:06:07.019Z,3.74
2023-02-12T09:08:33.687Z,3.76
2023-02-12T09:11:00.170Z,3.84
2023-02-12T09:13:27.132Z,3.98
2023-02-12T09:15:53.615Z,4.08
2023-02-12T09:18:20.096Z,4.11
2023-02-12T09:20:46.588Z,4.09
2023-02-12T09:23:13.661Z,4.17
2023-02-12T09:25:45.411Z,4.26
2023-02-12T09:28:13.025Z,4.32
2023-02-12T09:30:39.947Z,4.36
2023-02-12T09:33:06.947Z,4.55
2023-02-12T09:35:37.772Z,4.52
2023-02-12T09:38:04.826Z,4.64
2023-02-12T09:40:40.630Z,4.64
2023-02-12T09:43:25.756Z,4.77
2023-02-12T09:46:21.562Z,4.71
2023-02-12T09:49:08.134Z,4.79
2023-02-12T09:51:34.838Z,4.83
2023-02-12T09:54:15.290Z,4.78
2023-02-12T09:56:46.941Z,4.76
2023-02-12T09:59:17.395Z,4.80
2023-02-12T10:01:43.897Z,4.80
2023-02-12T10:04:10.453Z,4.72
2023-02-12T10:06:41.840Z,4.96
2023-02-12T10:09:30.193Z,4.94
2023-02-12T10:12:24.602Z,5.01
2023-02-12T10:14:57.052Z,5.07
2023-02-12T10:17:35.774Z,5.13
2023-02-12T10:20:24.140Z,5.28
2023-02-12T10:23:21.484Z,5.29
2023-02-12T10:26:22.721Z,5.40
2023-02-12T10:28:49.180Z,5.42
2023-02-12T10:31:31.238Z,5.56
2023-02-12T10:33:58.815Z,5.53
2023-02-12T10:36:44.496Z,5.53
2023-02-12T10:39:10.854Z,5.59
2023-02-12T10:42:05.098Z,5.67
2023-02-12T10:44:31.569Z,5.76
2023-02-12T10:46:58.110Z,5.68
2023-02-12T10:49:24.832Z,5.55
2023-02-12T10:52:12.909Z,5.50
2023-02-12T10:54:47.112Z,5.59
2023-02-12T10:57:14.802Z,5.75
2023-02-12T10:59:42.604Z,6.03
2023-02-12T11:02:23.111Z,6.29
2023-02-12T11:04:50.097Z,6.35
2023-02-12T11:07:16.671Z,6.34
2023-02-12T11:09:47.498Z,6.60
2023-02-12T11:12:22.727Z,6.37
2023-02-12T11:14:53.642Z,6.40
2023-02-12T11:17:25.486Z,6.38
2023-02-12T11:20:44.574Z,6.60
2023-02-12T11:23:29.425Z,6.64
2023-02-12T11:25:58.687Z,6.84
2023-02-12T11:28:25.446Z,6.44
2023-02-12T11:30:57.584Z,6.59
2023-02-12T11:33:26.403Z,6.45
2023-02-12T11:36:12.211Z,6.38
2023-02-12T11:38:50.419Z,6.67
2023-02-12T11:41:22.936Z,6.92
2023-02-12T11:43:50.430Z,6.91
2023-02-12T11:46:22.349Z,7.06
2023-02-12T11:48:48.966Z,7.10
2023-02-12T11:51:21.426Z,7.15
2023-02-12T11:53:49.952Z,7.04
2023-02-12T11:56:16.559Z,6.81
2023-02-12T11:58:44.833Z,6.94
2023-02-12T12:01:19.410Z,6.73
2023-02-12T12:04:15.368Z,6.97
2023-02-12T12:06:48.031Z,7.02
2023-02-12T12:09:23.091Z,7.04
2023-02-12T12:12:04.959Z,7.21
2023-02-12T12:15:00.127Z,7.19
2023-02-12T12:17:53.759Z,7.13
2023-02-12T12:20:22.620Z,7.17
2023-02-12T12:23:01.436Z,7.33
2023-02-12T12:25:34.997Z,7.18
2023-02-12T12:28:22.886Z,7.07
2023-02-12T12:31:09.330Z,7.16
2023-02-12T12:33:49.590Z,7.23
2023-02-12T12:36:55.250Z,7.15
2023-02-12T12:39:25.004Z,7.11
2023-02-12T12:41:54.117Z,7.08
2023-02-12T12:44:30.711Z,7.19
2023-02-12T12:47:22.366Z,7.23
2023-02-12T12:50:08.411Z,8.84
2023-02-12T12:52:59.753Z,9.32
2023-02-12T12:55:51.263Z,9.09
2023-02-12T12:58:36.081Z,8.31
2023-02-12T13:01:30.623Z,8.16
2023-02-12T13:04:24.772Z,8.07
2023-02-12T13:07:12.622Z,7.99
2023-02-12T13:09:45.789Z,7.78
2023-02-12T13:12:27.457Z,7.42
2023-02-12T13:14:57.013Z,7.33
2023-02-12T13:17:30.926Z,7.40
2023-02-12T13:20:12.703Z,7.40
2023-02-12T13:22:50.540Z,7.53
2023-02-12T13:25:22.201Z,7.60
2023-02-12T13:27:48.733Z,7.54
2023-02-12T13:30:16.155Z,7.34
2023-02-12T13:32:46.244Z,7.34
2023-02-12T13:35:20.055Z,7.41
2023-02-12T13:37:48.905Z,7.72
2023-02-12T13:40:26.566Z,7.96
2023-02-12T13:43:05.974Z,7.94
2023-02-12T13:45:38.431Z,7.92
2023-02-12T13:48:23.003Z,8.12
2023-02-12T13:51:09.670Z,8.31
2023-02-12T13:54:00.507Z,8.24
2023-02-12T13:56:46.290Z,8.18
2023-02-12T13:59:37.038Z,8.14
2023-02-12T14:02:12.440Z,7.89
2023-02-12T14:04:54.641Z,7.94
2023-02-12T14:07:21.555Z,7.90
2023-02-12T14:09:50.829Z,8.12
2023-02-12T14:12:24.322Z,8.19
2023-02-12T14:14:55.950Z,8.09
2023-02-12T14:17:28.582Z,7.94
2023-02-12T14:19:57.863Z,7.92
2023-02-12T14:22:26.994Z,7.94
2023-02-12T14:24:54.499Z,7.83
2023-02-12T14:27:27.239Z,7.76
2023-02-12T14:30:02.708Z,7.78
2023-02-12T14:32:53.337Z,7.60
2023-02-12T14:35:35.899Z,7.60
2023-02-12T14:38:47.778Z,7.71
2023-02-12T14:41:34.451Z,7.74
2023-02-12T14:44:30.600Z,7.65
2023-02-12T14:46:57.666Z,7.69
2023-02-12T14:49:31.494Z,7.69
2023-02-12T14:52:07.237Z,7.62
2023-02-12T14:54:54.162Z,7.47
2023-02-12T14:57:23.587Z,7.42
2023-02-12T14:59:50.185Z,7.34
2023-02-12T15:02:36.940Z,7.32
2023-02-12T15:05:13.676Z,7.33
2023-02-12T15:07:49.654Z,7.28
2023-02-12T15:10:20.991Z,7.19
2023-02-12T15:12:57.869Z,7.19
2023-02-12T15:15:37.368Z,6.92
2023-02-12T15:18:10.788Z,6.87
2023-02-12T15:20:45.378Z,6.43
2023-02-12T15:23:33.973Z,6.14
2023-02-12T15:26:00.459Z,5.96
2023-02-12T15:28:33.566Z,5.98
2023-02-12T15:31:02.020Z,5.71
2023-02-12T15:33:32.927Z,5.71
2023-02-12T15:36:00.540Z,5.38
2023-02-12T15:38:41.603Z,5.44
2023-02-12T15:41:08.602Z,5.42
2023-02-12T15:43:39.286Z,5.33
2023-02-12T15:46:07.683Z,5.06
2023-02-12T15:48:35.426Z,5.31
2023-02-12T15:51:23.431Z,5.68
2023-02-12T15:53:49.995Z,5.45
2023-02-12T15:56:18.494Z,5.29
2023-02-12T15:58:55.698Z,5.32
2023-02-12T16:01:27.168Z,4.99
2023-02-12T16:03:55.667Z,5.09
2023-02-12T16:06:22.790Z,4.95
2023-02-12T16:08:50.811Z,4.26
2023-02-12T16:11:19.873Z,3.79
2023-02-12T16:13:58.131Z,4.06
2023-02-12T16:16:26.896Z,3.92
2023-02-12T16:19:18.531Z,3.76
2023-02-12T16:21:45.309Z,3.49
2023-02-12T16:24:22.761Z,3.40
2023-02-12T16:26:51.006Z,3.30
2023-02-12T16:29:17.682Z,3.38
2023-02-12T16:31:59.126Z,3.27
2023-02-12T16:34:33.931Z,2.70
2023-02-12T16:37:00.486Z,2.33
2023-02-12T16:40:07.551Z,2.24
2023-02-12T16:42:34.493Z,2.33
2023-02-12T16:45:00.986Z,2.17
2023-02-12T16:47:27.469Z,1.96
2023-02-12T16:49:58.870Z,1.45
2023-02-12T16:52:43.276Z,1.43
2023-02-12T16:55:14.253Z,1.39
2023-02-12T16:57:40.800Z,0.98
2023-02-12T17:00:08.320Z,0.90
2023-02-12T17:02:37.788Z,0.64
2023-02-12T17:05:07.132Z,0.54
2023-02-12T17:07:33.806Z,0.50
2023-02-12T17:10:00.678Z,1.11
2023-02-12T17:12:27.318Z,0.87
2023-02-12T17:14:54.807Z,1.14
2023-02-12T17:17:21.621Z,1.47
2023-02-12T17:19:48.209Z,1.06
2023-02-12T17:22:20.231Z,0.83
2023-02-12T17:24:51.358Z,0.40
2023-02-12T17:27:18.631Z,0.31
2023-02-12T17:29:45.194Z,0.53
2023-02-12T17:32:11.824Z,0.70
2023-02-12T17:34:47.999Z,0.18
2023-02-12T17:37:15.860Z,0.42
2023-02-12T17:39:42.350Z,0.52
2023-02-12T17:42:08.913Z,0.36
2023-02-12T17:44:35.517Z,0.40
2023-02-12T17:47:01.998Z,0.71
2023-02-12T17:49:28.510Z,0.92
2023-02-12T17:51:55.070Z,0.50
2023-02-12T17:54:21.724Z,0.31
2023-02-12T17:56:48.223Z,0.17
2023-02-12T17:59:14.749Z,0.04
2023-02-12T18:01:41.441Z,0.24
2023-02-12T18:04:08.067Z,-0.06
2023-02-12T18:06:34.684Z,-0.08
2023-02-12T18:09:03.744Z,-0.29
2023-02-12T18:11:30.433Z,-0.38
2023-02-12T18:13:57.431Z,-0.48
2023-02-12T18:16:24.922Z,-0.33
2023-02-12T18:18:51.432Z,-0.51
2023-02-12T18:21:18.029Z,-0.50
2023-02-12T18:23:44.587Z,-0.33
2023-02-12T18:26:13.142Z,-0.73
2023-02-12T18:28:39.671Z,-0.61
2023-02-12T18:31:06.350Z,-0.46
2023-02-12T18:33:32.956Z,-0.78
2023-02-12T18:36:04.110Z,-0.88
2023-02-12T18:38:30.648Z,-0.93
2023-02-12T18:40:57.484Z,-0.88
2023-02-12T18:43:24.874Z,-0.63
2023-02-12T18:45:51.502Z,-0.19
2023-02-12T18:48:18.097Z,0.04
2023-02-12T18:50:44.701Z,-0.55
2023-02-12T18:53:11.266Z,-0.71
2023-02-12T18:55:40.769Z,-0.67
2023-02-12T18:58:07.340Z,-0.74
2023-02-12T19:00:33.882Z,-0.82
2023-02-12T19:03:00.451Z,-0.70
2023-02-12T19:05:27.031Z,-0.86
2023-02-12T19:07:53.609Z,-0.70
2023-02-12T19:10:20.086Z,-0.38
2023-02-12T19:12:46.702Z,-0.57
2023-02-12T19:15:13.329Z,-0.86
2023-02-12T19:17:39.807Z,-0.76
2023-02-12T19:20:06.965Z,-1.09
2023-02-12T19:22:33.612Z,-1.13
2023-02-12T19:25:00.133Z,-1.23
2023-02-12T19:27:26.714Z,-1.11
2023-02-12T19:29:53.203Z,-0.91
2023-02-12T19:32:19.771Z,-1.02
2023-02-12T19:34:46.560Z,-1.05
2023-02-12T19:37:13.807Z,-1.25
2023-02-12T19:39:40.545Z,-1.21
2023-02-12T19:42:07.083Z,-1.33
2023-02-12T19:44:33.551Z,-1.08
2023-02-12T19:47:00.056Z,-0.69
2023-02-12T19:49:27.871Z,-0.49
2023-02-12T19:51:54.392Z,-0.41
2023-02-12T19:54:21.414Z,-0.57
2023-02-12T19:56:48.122Z,-0.56
2023-02-12T19:59:17.274Z,-0.75
2023-02-12T20:01:44.160Z,-0.74
2023-02-12T20:04:15.009Z,-0.43
2023-02-12T20:06:41.600Z,-0.39
2023-02-12T20:09:08.259Z,-0.13
2023-02-12T20:11:37.580Z,0.12
2023-02-12T20:14:04.704Z,0.18
2023-02-12T20:16:36.175Z,0.01
2023-02-12T20:19:05.109Z,-0.08
2023-02-12T20:21:31.729Z,-0.13
2023-02-12T20:23:58.507Z,0.04
2023-02-12T20:26:25.413Z,0.25
2023-02-12T20:28:51.901Z,0.04
2023-02-12T20:31:23.750Z,-0.05
2023-02-12T20:33:54.559Z,0.14
2023-02-12T20:36:21.074Z,-0.06
2023-02-12T20:38:50.354Z,-0.03
2023-02-12T20:41:16.974Z,-0.03
2023-02-12T20:43:43.485Z,-0.06
2023-02-12T20:46:11.985Z,-0.12
2023-02-12T20:48:38.776Z,-0.21
2023-02-12T20:51:10.378Z,-0.21
2023-02-12T20:53:36.940Z,-0.41
2023-02-12T20:56:32.065Z,-0.57
2023-02-12T20:58:59.143Z,-0.37
2023-02-12T21:01:34.786Z,-0.68
2023-02-12T21:04:03.418Z,-0.76
2023-02-12T21:06:29.943Z,-0.84
2023-02-12T21:08:56.481Z,-0.68
2023-02-12T21:11:23.918Z,-0.40
2023-02-12T21:13:59.066Z,-0.60
2023-02-12T21:16:32.681Z,-0.32
2023-02-12T21:18:59.261Z,-0.18
2023-02-12T21:21:27.692Z,-0.12
2023-02-12T21:23:56.827Z,-0.07
2023-02-12T21:26:24.481Z,0.16
2023-02-12T21:28:51.515Z,0.17
2023-02-12T21:31:23.101Z,0.20
2023-02-12T21:33:50.507Z,0.07
2023-02-12T21:36:21.703Z,-0.04
2023-02-12T21:38:49.920Z,0.11
2023-02-12T21:41:21.737Z,-0.02
2023-02-12T21:43:50.261Z,0.06
2023-02-12T21:46:17.185Z,0.15
2023-02-12T21:48:44.571Z,-0.03
2023-02-12T21:51:28.401Z,0.11
2023-02-12T21:53:57.569Z,0.08
2023-02-12T21:56:24.253Z,0.27
2023-02-12T21:58:50.919Z,0.21
2023-02-12T22:01:28.434Z,0.13
2023-02-12T22:03:55.150Z,0.20
2023-02-12T22:06:22.551Z,0.37
2023-02-12T22:08:49.627Z,0.35
2023-02-12T22:11:16.509Z,0.44
2023-02-12T22:13:43.094Z,0.35
2023-02-12T22:16:10.975Z,0.44
2023-02-12T22:18:37.548Z,0.36
2023-02-12T22:21:05.152Z,0.39
2023-02-12T22:23:31.861Z,0.28
2023-02-12T22:26:12.955Z,0.47
2023-02-12T22:28:44.608Z,0.44
2023-02-12T22:31:12.078Z,0.55
2023-02-12T22:33:38.661Z,0.54
2023-02-12T22:36:06.563Z,0.40
2023-02-12T22:38:33.929Z,0.40
2023-02-12T22:41:00.593Z,0.41
2023-02-12T22:43:33.064Z,0.36
2023-02-12T22:45:59.644Z,0.44
2023-02-12T22:48:26.538Z,0.44
2023-02-12T22:50:53.012Z,0.41
2023-02-12T22:53:19.549Z,0.44
2023-02-12T22:55:46.083Z,0.43
2023-02-12T22:58:12.577Z,0.42
2023-02-12T23:00:40.349Z,0.37
2023-02-12T23:03:07.083Z,0.29
2023-02-12T23:05:37.403Z,0.38
2023-02-12T23:08:04.630Z,0.36
2023-02-12T23:10:31.519Z,0.35
2023-02-12T23:12:58.168Z,0.34
2023-02-12T23:15:24.693Z,0.38
2023-02-12T23:17:51.474Z,0.50
2023-02-12T23:20:18.158Z,0.24
2023-02-12T23:22:44.626Z,0.15
2023-02-12T23:25:11.206Z,0.15
2023-02-12T23:27:37.898Z,0.25
2023-02-12T23:30:04.934Z,0.33
2023-02-12T23:32:31.454Z,0.26
2023-02-12T23:34:57.985Z,0.38
2023-02-12T23:37:24.439Z,0.41
2023-02-12T23:39:50.974Z,0.33
2023-02-12T23:42:17.521Z,0.35
2023-02-12T23:44:43.995Z,0.37
2023-02-12T23:47:10.546Z,0.32
2023-02-12T23:49:37.883Z,0.24
2023-02-12T23:52:04.561Z,0.32
2023-02-12T23:54:31.831Z,0.21
2023-02-12T23:56:58.365Z,0.21
2023-02-12T23:59:25.491Z,0.21
